メインページ
METAR-TAF:

METAR-TAF

空港 :

エドモントン国際空港

エドモントン, アルバータ州, カナダ

緯度: 53-18N, 経度: 113-35W, 海抜: 715m

現時点の気象観測

当レポートは18分前の11:00(UTC)に作成
南西の風 5kt
気温 4°C
湿度 60%
気圧 1010 hPa
視程: 32.2km
高度8000ftの雲は散在している
高度10000ftの曇り

METAR: CYEG 141100Z 23005KT 20SM SCT080 OVC100 04/M03 A2983 RMK AC3AC5 SLP127

時間: 04:18 (11:18 UTC)

予報

当レポートは2時間40分前の08:38(UTC)に作成
予報は14日の 09時(UTC)から 15日の 06時(UTC)まで有効
西の風 8kt
視程: 10km
高度8000ftの雲は散在している
高度14000ftの曇り
14日の 09時(UTC)から 14日の 15時(UTC)まで一時的に
視程: 10km
高度8000ftの曇り
弱いにわか雨
14日の 1500時(UTC)から
南西の風 6kt
視程: 10km
高度6000ftの雲は散在している
14日の 20時(UTC)から 14日の 22時(UTC)まで徐々に
西の風 6kt
15日の 0000時(UTC)から
西の風 10kt
視程: 10km
高度1200ftの雲はほとんどない
高度6000ftの千切れ雲あり
高度12000ftの曇り
弱いにわか雨

TAF: CYEG 140838Z 1409/1506 28008KT P6SM SCT080 OVC140 TEMPO 1409/1415 P6SM -SHRA OVC080 FM141500 22006KT P6SM SCT060 BECMG 1420/1422 28006KT FM150000 28010KT P6SM -SHRA FEW012 BKN060 OVC120 RMK NXT FCST BY 141200Z

4,000以上の空港の気象観測と天気予報(METAR報とTAF報)

利用可能な観測所は地図上に黄色い丸と赤い丸で示す。

丸の上にカーソルを重ねると観測所名を参照できる。

次にクリックすると気象観測と天気予報を参照できる。

マップの切り替え:黒色「×」印の緑ボタンをクリックして拡大、「-」印の緑ボタンをクリックして縮小、緑色の三角印をクリックして隣りの地図に切り替え


METAR-TAF: